createdAt,value
2023-05-24T00:03:00.630Z,97675.75
2023-05-24T00:06:07.246Z,97687.53
2023-05-24T00:09:09.634Z,97687.00
2023-05-24T00:12:11.913Z,97691.53
2023-05-24T00:15:14.260Z,97678.38
2023-05-24T00:18:18.499Z,97685.38
2023-05-24T00:21:21.340Z,97685.88
2023-05-24T00:24:23.581Z,97661.22
2023-05-24T00:27:26.642Z,97685.13
2023-05-24T00:30:29.000Z,97695.00
2023-05-24T00:33:31.235Z,97692.31
2023-05-24T00:36:33.638Z,97692.59
2023-05-24T00:39:35.877Z,97660.94
2023-05-24T00:42:38.492Z,97690.44
2023-05-24T00:45:41.633Z,97690.94
2023-05-24T00:48:45.378Z,97694.19
2023-05-24T00:51:48.798Z,97703.53
2023-05-24T00:54:51.426Z,97690.13
2023-05-24T00:57:55.357Z,97700.56
2023-05-24T01:01:02.939Z,97687.38
2023-05-24T01:04:05.947Z,97705.03
2023-05-24T01:07:46.724Z,97700.72
2023-05-24T01:11:04.874Z,97702.53
2023-05-24T01:14:23.053Z,97700.09
2023-05-24T01:18:08.092Z,97704.59
2023-05-24T01:21:13.480Z,97715.53
2023-05-24T01:24:53.961Z,97697.53
2023-05-24T01:27:56.646Z,97700.38
2023-05-24T01:31:00.801Z,97692.31
2023-05-24T01:34:02.980Z,97695.22
2023-05-24T01:37:05.285Z,97701.59
2023-05-24T01:40:08.740Z,97697.53
2023-05-24T01:43:32.200Z,97694.84
2023-05-24T01:46:40.535Z,97679.31
2023-05-24T01:49:50.262Z,97679.38
2023-05-24T01:52:53.828Z,97686.88
2023-05-24T01:55:58.893Z,97687.66
2023-05-24T01:59:02.772Z,97688.97
2023-05-24T02:02:05.500Z,97695.03
2023-05-24T02:05:07.937Z,97699.78
2023-05-24T02:08:10.735Z,97697.59
2023-05-24T02:11:13.542Z,97700.19
2023-05-24T02:14:17.657Z,97693.09
2023-05-24T02:17:20.043Z,97694.84
2023-05-24T02:20:25.549Z,97698.53
2023-05-24T02:23:28.596Z,97710.25
2023-05-24T02:26:31.556Z,97711.34
2023-05-24T02:29:33.772Z,97707.69
2023-05-24T02:32:36.706Z,97705.84
2023-05-24T02:35:41.661Z,97689.66
2023-05-24T02:38:44.326Z,97716.19
2023-05-24T02:41:50.391Z,97682.03
2023-05-24T02:44:53.176Z,97714.28
2023-05-24T02:47:55.351Z,97711.63
2023-05-24T02:50:57.575Z,97714.22
2023-05-24T02:53:59.930Z,97718.72
2023-05-24T02:57:06.844Z,97713.81
2023-05-24T03:00:11.498Z,97722.06
2023-05-24T03:03:16.283Z,97711.97
2023-05-24T03:06:19.398Z,97725.69
2023-05-24T03:09:22.457Z,97742.47
2023-05-24T03:12:25.098Z,97718.69
2023-05-24T03:15:27.593Z,97734.28
2023-05-24T03:18:30.512Z,97744.56
2023-05-24T03:21:33.270Z,97742.53
2023-05-24T03:24:35.780Z,97758.59
2023-05-24T03:27:38.235Z,97733.81
2023-05-24T03:30:40.817Z,97729.53
2023-05-24T03:33:43.051Z,97725.88
2023-05-24T03:36:45.216Z,97721.75
2023-05-24T03:39:48.134Z,97726.72
2023-05-24T03:43:06.496Z,97731.53
2023-05-24T03:46:18.002Z,97726.19
2023-05-24T03:49:21.096Z,97728.31
2023-05-24T03:52:23.255Z,97673.81
2023-05-24T03:55:25.405Z,97734.06
2023-05-24T03:58:28.079Z,97732.09
2023-05-24T04:01:35.182Z,97751.59
2023-05-24T04:04:37.763Z,97751.88
2023-05-24T04:07:40.536Z,97734.16
2023-05-24T04:10:43.177Z,97748.19
2023-05-24T04:13:46.954Z,97758.59
2023-05-24T04:16:49.208Z,97765.88
2023-05-24T04:19:54.319Z,97772.50
2023-05-24T04:22:56.726Z,97777.84
2023-05-24T04:25:59.046Z,97775.81
2023-05-24T04:29:02.069Z,97771.91
2023-05-24T04:32:04.822Z,97777.97
2023-05-24T04:35:08.452Z,97738.69
2023-05-24T04:38:13.171Z,97774.84
2023-05-24T04:41:15.442Z,97768.47
2023-05-24T04:44:17.822Z,97768.75
2023-05-24T04:47:20.145Z,97782.09
2023-05-24T04:50:22.331Z,97779.69
2023-05-24T04:53:25.946Z,97777.19
2023-05-24T04:56:28.110Z,97769.72
2023-05-24T04:59:30.368Z,97776.44
2023-05-24T05:02:33.268Z,97791.41
2023-05-24T05:05:35.746Z,97783.56
2023-05-24T05:08:37.950Z,97807.78
2023-05-24T05:11:40.690Z,97804.53
2023-05-24T05:14:43.108Z,97814.47
2023-05-24T05:17:45.869Z,97801.91
2023-05-24T05:20:48.179Z,97803.88
2023-05-24T05:23:50.761Z,97804.97
2023-05-24T05:26:52.996Z,97812.72
2023-05-24T05:29:55.162Z,97816.78
2023-05-24T05:32:57.624Z,97827.53
2023-05-24T05:36:00.475Z,97825.44
2023-05-24T05:39:02.825Z,97821.19
2023-05-24T05:42:05.560Z,97817.50
2023-05-24T05:45:08.436Z,97824.97
2023-05-24T05:48:10.802Z,97829.56
2023-05-24T05:51:13.043Z,97826.34
2023-05-24T05:54:16.559Z,97825.47
2023-05-24T05:57:24.470Z,97837.09
2023-05-24T06:00:26.926Z,97824.88
2023-05-24T06:03:29.468Z,97821.22
2023-05-24T06:06:32.016Z,97822.38
2023-05-24T06:09:34.295Z,97836.13
2023-05-24T06:12:36.446Z,97834.75
2023-05-24T06:15:38.700Z,97836.59
2023-05-24T06:18:47.400Z,97840.66
2023-05-24T06:21:56.204Z,97838.81
2023-05-24T06:24:58.473Z,97841.47
2023-05-24T06:28:00.686Z,97845.03
2023-05-24T06:31:04.309Z,97847.16
2023-05-24T06:34:06.813Z,97844.44
2023-05-24T06:37:10.744Z,97825.88
2023-05-24T06:40:13.409Z,97831.72
2023-05-24T06:43:16.492Z,97838.81
2023-05-24T06:46:19.098Z,97815.19
2023-05-24T06:49:23.150Z,97855.25
2023-05-24T06:52:25.705Z,97847.41
2023-05-24T06:55:27.980Z,97822.94
2023-05-24T06:58:30.657Z,97851.13
2023-05-24T07:01:34.127Z,97841.72
2023-05-24T07:04:36.834Z,97844.88
2023-05-24T07:07:43.768Z,97874.16
2023-05-24T07:10:46.146Z,97870.16
2023-05-24T07:13:48.276Z,97874.22
2023-05-24T07:16:50.575Z,97868.09
2023-05-24T07:19:52.768Z,97872.69
2023-05-24T07:22:54.934Z,97880.16
2023-05-24T07:25:57.489Z,97886.59
2023-05-24T07:28:59.667Z,97876.09
2023-05-24T07:32:02.079Z,97883.28
2023-05-24T07:35:04.542Z,97886.00
2023-05-24T07:38:07.308Z,97854.38
2023-05-24T07:41:09.556Z,97887.13
2023-05-24T07:44:13.999Z,97881.72
2023-05-24T07:47:16.808Z,97902.41
2023-05-24T07:50:19.388Z,97900.81
2023-05-24T07:53:23.288Z,97896.50
2023-05-24T07:56:26.080Z,97901.31
2023-05-24T07:59:28.575Z,97908.84
2023-05-24T08:02:31.660Z,97915.28
2023-05-24T08:05:34.020Z,97913.94
2023-05-24T08:08:36.633Z,97909.16
2023-05-24T08:11:38.804Z,97893.84
2023-05-24T08:14:41.205Z,97905.91
2023-05-24T08:17:43.518Z,97907.28
2023-05-24T08:20:45.947Z,97874.31
2023-05-24T08:23:48.269Z,97907.59
2023-05-24T08:26:52.185Z,97910.56
2023-05-24T08:29:56.896Z,97876.97
2023-05-24T08:32:59.455Z,97902.50
2023-05-24T08:36:02.849Z,97905.44
2023-05-24T08:39:05.747Z,97905.16
2023-05-24T08:42:10.168Z,97877.75
2023-05-24T08:45:14.213Z,97857.81
2023-05-24T08:48:18.770Z,97901.53
2023-05-24T08:51:21.895Z,97902.63
2023-05-24T08:54:25.139Z,97890.34
2023-05-24T08:57:32.910Z,97895.66
2023-05-24T09:00:35.133Z,97876.03
2023-05-24T09:03:38.949Z,97905.31
2023-05-24T09:06:42.316Z,97912.56
2023-05-24T09:09:50.226Z,97918.03
2023-05-24T09:12:56.534Z,97901.38
2023-05-24T09:16:00.685Z,97895.72
2023-05-24T09:19:04.311Z,97925.25
2023-05-24T09:22:07.799Z,97913.16
2023-05-24T09:25:13.165Z,97926.84
2023-05-24T09:28:18.304Z,97915.63
2023-05-24T09:31:32.362Z,97921.56
2023-05-24T09:34:44.743Z,97896.81
2023-05-24T09:37:47.569Z,97922.78
2023-05-24T09:41:04.385Z,97918.47
2023-05-24T09:44:07.886Z,97924.66
2023-05-24T09:47:10.381Z,97926.84
2023-05-24T09:50:15.271Z,97929.00
2023-05-24T09:53:20.147Z,97920.34
2023-05-24T09:56:23.947Z,97921.97
2023-05-24T09:59:28.298Z,97918.81
2023-05-24T10:02:38.222Z,97902.88
2023-05-24T10:05:47.228Z,97917.88
2023-05-24T10:08:50.574Z,97916.50
2023-05-24T10:11:53.064Z,97912.72
2023-05-24T10:14:57.914Z,97922.06
2023-05-24T10:18:11.388Z,97919.16
2023-05-24T10:21:16.694Z,97911.13
2023-05-24T10:24:22.942Z,97917.84
2023-05-24T10:27:30.816Z,97923.47
2023-05-24T10:30:45.231Z,97904.59
2023-05-24T10:33:49.229Z,97899.28
2023-05-24T10:36:52.314Z,97912.69
2023-05-24T10:39:55.265Z,97926.06
2023-05-24T10:42:57.791Z,97925.72
2023-05-24T10:46:04.968Z,97924.88
2023-05-24T10:49:07.863Z,97928.03
2023-05-24T10:52:11.159Z,97923.28
2023-05-24T10:55:13.663Z,97931.19
2023-05-24T10:58:16.002Z,97928.09
2023-05-24T11:01:28.461Z,97947.03
2023-05-24T11:04:37.297Z,97934.78
2023-05-24T11:07:45.542Z,97905.50
2023-05-24T11:10:47.923Z,97911.03
2023-05-24T11:13:56.572Z,97925.41
2023-05-24T11:17:03.231Z,97926.28
2023-05-24T11:20:09.857Z,97901.44
2023-05-24T11:23:12.098Z,97936.31
2023-05-24T11:26:15.340Z,97920.00
2023-05-24T11:29:19.371Z,97912.00
2023-05-24T11:32:22.145Z,97927.16
2023-05-24T11:35:28.137Z,97914.94
2023-05-24T11:38:30.321Z,97922.94
2023-05-24T11:41:37.429Z,97919.28
2023-05-24T11:44:39.737Z,97932.31
2023-05-24T11:47:42.043Z,97928.69
2023-05-24T11:50:50.367Z,97927.88
2023-05-24T11:53:54.704Z,97928.09
2023-05-24T11:56:58.206Z,97931.47
2023-05-24T12:00:00.928Z,97924.75
2023-05-24T12:03:07.674Z,97922.16
2023-05-24T12:06:10.142Z,97914.38
2023-05-24T12:09:14.060Z,97926.38
2023-05-24T12:12:16.434Z,97927.00
2023-05-24T12:15:18.890Z,97936.66
2023-05-24T12:18:22.715Z,97931.19
2023-05-24T12:21:25.715Z,97927.25
2023-05-24T12:24:28.732Z,97922.91
2023-05-24T12:27:31.647Z,97893.16
2023-05-24T12:30:33.925Z,97916.84
2023-05-24T12:33:36.188Z,97904.19
2023-05-24T12:36:39.649Z,97903.94
2023-05-24T12:39:44.200Z,97905.50
2023-05-24T12:42:58.158Z,97917.56
2023-05-24T12:46:00.549Z,97914.59
2023-05-24T12:49:05.186Z,97920.78
2023-05-24T12:52:07.521Z,97923.41
2023-05-24T12:55:10.534Z,97919.97
2023-05-24T12:58:16.877Z,97918.69
2023-05-24T13:01:20.083Z,97920.31
2023-05-24T13:04:24.631Z,97916.28
2023-05-24T13:07:27.273Z,97671.16
2023-05-24T13:10:29.856Z,97453.03
2023-05-24T13:13:33.183Z,97879.25
2023-05-24T13:16:36.072Z,97842.09
2023-05-24T13:19:38.466Z,97726.00
2023-05-24T13:22:40.919Z,97676.41
2023-05-24T13:25:43.747Z,97789.56
2023-05-24T13:29:04.934Z,97742.66
2023-05-24T13:32:08.297Z,97811.38
2023-05-24T13:35:10.472Z,97846.56
2023-05-24T13:38:14.444Z,97841.34
2023-05-24T13:41:17.441Z,97833.66
2023-05-24T13:44:20.086Z,97784.81
2023-05-24T13:47:35.409Z,97930.25
2023-05-24T13:50:42.508Z,97686.69
2023-05-24T13:53:44.882Z,97607.38
2023-05-24T13:56:49.284Z,97657.47
2023-05-24T13:59:51.518Z,97614.88
2023-05-24T14:02:54.133Z,97840.00
2023-05-24T14:05:56.511Z,97733.47
2023-05-24T14:09:00.850Z,97716.81
2023-05-24T14:12:07.961Z,97638.47
2023-05-24T14:15:11.180Z,97731.16
2023-05-24T14:18:13.596Z,97892.88
2023-05-24T14:21:16.147Z,97892.94
2023-05-24T14:24:18.524Z,97704.91
2023-05-24T14:27:20.832Z,97660.22
2023-05-24T14:30:24.481Z,97793.53
2023-05-24T14:33:27.496Z,97633.84
2023-05-24T14:36:29.653Z,97885.66
2023-05-24T14:39:31.936Z,97856.34
2023-05-24T14:42:34.250Z,97626.75
2023-05-24T14:45:42.621Z,97656.50
2023-05-24T14:48:47.165Z,97718.25
2023-05-24T14:51:49.789Z,97770.94
2023-05-24T14:54:52.264Z,97629.56
2023-05-24T14:57:55.147Z,97714.94
2023-05-24T15:00:57.979Z,97654.56
2023-05-24T15:04:00.489Z,97723.97
2023-05-24T15:07:03.419Z,97805.50
2023-05-24T15:10:06.758Z,97729.13
2023-05-24T15:13:09.021Z,97751.72
2023-05-24T15:16:11.214Z,97761.13
2023-05-24T15:19:13.612Z,97786.72
2023-05-24T15:22:18.024Z,97750.84
2023-05-24T15:25:21.140Z,97671.06
2023-05-24T15:28:26.059Z,97762.25
2023-05-24T15:31:28.877Z,97553.06
2023-05-24T15:34:31.297Z,97790.13
2023-05-24T15:37:33.664Z,97591.81
2023-05-24T15:40:38.652Z,97765.50
2023-05-24T15:43:40.894Z,97625.91
2023-05-24T15:46:43.795Z,97779.41
2023-05-24T15:49:46.759Z,97750.06
2023-05-24T15:52:49.081Z,97684.53
2023-05-24T15:55:52.712Z,97830.19
2023-05-24T15:58:55.054Z,97621.97
2023-05-24T16:01:57.774Z,97718.91
2023-05-24T16:05:01.288Z,97595.66
2023-05-24T16:08:04.539Z,97683.72
2023-05-24T16:11:08.656Z,97678.44
2023-05-24T16:14:11.015Z,97768.91
2023-05-24T16:17:15.892Z,97819.19
2023-05-24T16:20:18.186Z,97567.84
2023-05-24T16:23:23.428Z,97638.59
2023-05-24T16:26:27.312Z,97750.13
2023-05-24T16:29:29.615Z,97754.47
2023-05-24T16:32:32.019Z,97678.66
2023-05-24T16:35:34.791Z,97752.38
2023-05-24T16:38:38.137Z,97638.69
2023-05-24T16:41:40.672Z,97925.75
2023-05-24T16:44:42.988Z,97907.72
2023-05-24T16:47:45.269Z,97803.16
2023-05-24T16:50:47.848Z,97865.13
2023-05-24T16:53:50.103Z,97922.88
2023-05-24T16:56:55.128Z,97647.31
2023-05-24T16:59:58.459Z,97929.06
2023-05-24T17:03:00.996Z,97849.63
2023-05-24T17:06:05.492Z,97701.50
2023-05-24T17:09:08.132Z,97725.63
2023-05-24T17:12:10.488Z,97725.34
2023-05-24T17:15:12.730Z,97781.16
2023-05-24T17:18:15.451Z,97669.97
2023-05-24T17:21:17.713Z,97939.84
2023-05-24T17:24:21.940Z,97724.16
2023-05-24T17:27:24.287Z,97658.94
2023-05-24T17:30:28.382Z,97825.63
2023-05-24T17:33:32.226Z,97917.78
2023-05-24T17:36:36.789Z,97748.22
2023-05-24T17:39:40.114Z,97667.59
2023-05-24T17:42:43.547Z,97668.94
2023-05-24T17:45:46.021Z,97894.88
2023-05-24T17:48:48.453Z,97822.00
2023-05-24T17:51:50.774Z,97844.03
2023-05-24T17:54:53.115Z,97741.91
2023-05-24T17:57:55.271Z,97721.78
2023-05-24T18:00:58.380Z,97904.53
2023-05-24T18:04:00.874Z,97716.91
2023-05-24T18:07:03.192Z,97656.44
2023-05-24T18:10:07.179Z,97774.56
2023-05-24T18:13:09.728Z,97755.47
2023-05-24T18:16:12.402Z,97725.19
2023-05-24T18:19:14.650Z,97758.50
2023-05-24T18:22:16.921Z,97792.38
2023-05-24T18:25:19.288Z,97750.22
2023-05-24T18:28:21.723Z,97733.69
2023-05-24T18:31:24.557Z,97687.72
2023-05-24T18:34:26.963Z,97795.16
2023-05-24T18:37:29.209Z,97946.03
2023-05-24T18:40:31.992Z,97810.44
2023-05-24T18:43:34.346Z,97816.91
2023-05-24T18:46:36.695Z,97865.97
2023-05-24T18:49:39.022Z,97710.75
2023-05-24T18:52:41.225Z,97889.25
2023-05-24T18:55:43.948Z,97817.13
2023-05-24T18:58:49.829Z,97890.06
2023-05-24T19:01:53.251Z,97898.16
2023-05-24T19:04:55.449Z,97834.19
2023-05-24T19:07:58.068Z,97901.47
2023-05-24T19:11:00.354Z,97910.03
2023-05-24T19:14:02.730Z,98026.03
2023-05-24T19:17:05.292Z,97823.66
2023-05-24T19:20:08.220Z,97812.47
2023-05-24T19:23:10.791Z,97895.81
2023-05-24T19:26:13.178Z,97768.97
2023-05-24T19:29:16.397Z,97807.09
2023-05-24T19:32:20.659Z,97948.44
2023-05-24T19:35:22.965Z,97805.50
2023-05-24T19:38:25.190Z,98025.00
2023-05-24T19:41:27.534Z,97954.81
2023-05-24T19:44:30.229Z,97912.47
2023-05-24T19:47:32.798Z,98079.25
2023-05-24T19:50:35.163Z,97823.22
2023-05-24T19:53:37.566Z,97899.53
2023-05-24T19:56:39.813Z,97829.88
2023-05-24T19:59:42.282Z,98012.88
2023-05-24T20:02:44.740Z,97978.44
2023-05-24T20:05:47.133Z,98085.25
2023-05-24T20:08:49.416Z,97989.03
2023-05-24T20:11:51.684Z,97950.53
2023-05-24T20:14:55.515Z,97987.38
2023-05-24T20:17:58.357Z,98104.50
2023-05-24T20:21:00.685Z,97927.03
2023-05-24T20:24:03.259Z,97992.44
2023-05-24T20:27:06.671Z,98050.41
2023-05-24T20:30:10.759Z,97826.38
2023-05-24T20:33:13.322Z,97976.69
2023-05-24T20:36:15.935Z,97952.63
2023-05-24T20:39:18.109Z,98031.56
2023-05-24T20:42:20.376Z,98050.66
2023-05-24T20:45:23.749Z,97973.41
2023-05-24T20:48:25.903Z,97888.78
2023-05-24T20:51:28.059Z,97939.91
2023-05-24T20:54:30.949Z,97928.97
2023-05-24T20:57:33.132Z,98002.75
2023-05-24T21:00:35.964Z,97978.44
2023-05-24T21:03:39.913Z,97952.38
2023-05-24T21:06:42.218Z,98017.00
2023-05-24T21:09:44.465Z,97901.97
2023-05-24T21:12:48.169Z,97802.81
2023-05-24T21:15:51.383Z,97998.72
2023-05-24T21:18:53.708Z,98023.47
2023-05-24T21:21:56.854Z,97982.06
2023-05-24T21:24:59.094Z,98004.72
2023-05-24T21:28:01.873Z,98074.97
2023-05-24T21:31:05.182Z,98133.81
2023-05-24T21:34:07.498Z,97852.38
2023-05-24T21:37:09.785Z,97988.75
2023-05-24T21:40:12.409Z,98125.00
2023-05-24T21:43:14.707Z,98025.97
2023-05-24T21:46:17.587Z,97997.31
2023-05-24T21:49:20.393Z,97903.88
2023-05-24T21:52:23.705Z,98128.34
2023-05-24T21:55:26.054Z,97992.50
2023-05-24T21:58:28.301Z,97973.59
2023-05-24T22:01:31.000Z,98106.06
2023-05-24T22:04:33.247Z,97942.38
2023-05-24T22:07:37.360Z,98033.63
2023-05-24T22:10:39.694Z,97874.16
2023-05-24T22:13:42.041Z,97935.94
2023-05-24T22:16:44.406Z,97911.19
2023-05-24T22:19:48.310Z,97854.28
2023-05-24T22:22:53.935Z,97950.56
2023-05-24T22:25:56.204Z,98169.94
2023-05-24T22:29:04.221Z,97945.50
2023-05-24T22:32:06.855Z,97997.81
2023-05-24T22:35:09.518Z,98063.31
2023-05-24T22:38:11.799Z,97953.34
2023-05-24T22:41:14.523Z,98032.19
2023-05-24T22:44:17.654Z,98156.53
2023-05-24T22:47:22.431Z,98044.69
2023-05-24T22:50:25.915Z,98036.34
2023-05-24T22:53:29.210Z,97946.28
2023-05-24T22:56:32.504Z,98039.38
2023-05-24T22:59:34.713Z,97978.94
2023-05-24T23:02:36.970Z,98012.72
2023-05-24T23:05:42.047Z,97968.94
2023-05-24T23:08:44.760Z,98076.91
2023-05-24T23:11:47.000Z,97854.25
2023-05-24T23:14:49.639Z,97952.63
2023-05-24T23:17:53.046Z,97835.50
2023-05-24T23:20:56.324Z,98115.25
2023-05-24T23:24:02.307Z,98178.19
2023-05-24T23:27:06.627Z,97849.91
2023-05-24T23:30:09.666Z,98007.81
2023-05-24T23:33:11.984Z,98057.97
2023-05-24T23:36:14.288Z,98069.09
2023-05-24T23:39:16.575Z,97952.19
2023-05-24T23:42:18.988Z,98069.63
2023-05-24T23:45:21.297Z,97977.41
2023-05-24T23:48:23.651Z,97911.91
2023-05-24T23:51:25.966Z,98079.78
2023-05-24T23:54:28.536Z,98008.41
2023-05-24T23:57:31.717Z,97931.28
